Wetterdaten: Woche 13.04.15 - 19.04.15 (KW16)
Datum Zeit Temp. A. Feuchte A. Luftdruck Regen Wind Richtung Sonnenschein ET UV Solar Taupunkt Windchill Windben
13.04.2015 00:00 7,7 C 85 % 1026,1 hPa 0,0 l/m 0,2 km/h (0 Bft) N 0,00 h 0,000 mm 0,0 UV-I 0 W/m 5,4 C 7,7 C 1,0 km/h (0 Bft)
13.04.2015 01:00 8,1 C 84 % 1025,8 hPa 0,0 l/m 2,2 km/h (1 Bft) SW 0,00 h 0,000 mm 0,0 UV-I 0 W/m 5,6 C 8,1 C 4,8 km/h (1 Bft)
13.04.2015 02:00 9,0 C 81 % 1025,2 hPa 0,0 l/m 2,8 km/h (1 Bft) SW 0,00 h 0,000 mm 0,0 UV-I 0 W/m 6,0 C 9,0 C 6,2 km/h (2 Bft)
13.04.2015 03:00 9,2 C 81 % 1024,8 hPa 0,0 l/m 5,7 km/h (2 Bft) SW 0,00 h 0,025 mm 0,0 UV-I 0 W/m 6,1 C 8,9 C 10,6 km/h (2 Bft)
13.04.2015 04:00 8,9 C 82 % 1024,8 hPa 0,0 l/m 7,1 km/h (2 Bft) W-SW 0,00 h 0,000 mm 0,0 UV-I 0 W/m 6,0 C 7,9 C 11,8 km/h (2 Bft)
13.04.2015 05:00 8,4 C 83 % 1025,0 hPa 0,0 l/m 2,6 km/h (1 Bft) SW 0,00 h 0,025 mm 0,0 UV-I 0 W/m 5,7 C 8,4 C 5,8 km/h (2 Bft)
13.04.2015 06:00 7,5 C 85 % 1025,3 hPa 0,0 l/m 2,0 km/h (1 Bft) SW 0,00 h 0,025 mm 0,0 UV-I 12 W/m 5,2 C 7,5 C 4,8 km/h (1 Bft)
13.04.2015 07:00 8,1 C 84 % 1025,5 hPa 0,0 l/m 4,6 km/h (1 Bft) SW 0,63 h 0,000 mm 0,5 UV-I 72 W/m 5,6 C 7,9 C 8,5 km/h (2 Bft)
13.04.2015 08:00 9,7 C 79 % 1026,1 hPa 0,0 l/m 8,2 km/h (2 Bft) W 1,00 h 0,051 mm 0,7 UV-I 206 W/m 6,3 C 8,3 C 13,3 km/h (3 Bft)
13.04.2015 09:00 11,5 C 71 % 1026,2 hPa 0,0 l/m 13,3 km/h (3 Bft) W 1,00 h 0,127 mm 1,5 UV-I 447 W/m 6,5 C 7,8 C 20,4 km/h (4 Bft)
13.04.2015 10:00 12,6 C 62 % 1026,5 hPa 0,0 l/m 16,7 km/h (3 Bft) W 1,00 h 0,254 mm 2,0 UV-I 409 W/m 5,5 C 7,8 C 25,1 km/h (4 Bft)
13.04.2015 11:00 11,2 C 68 % 1027,4 hPa 0,0 l/m 11,4 km/h (2 Bft) W 0,97 h 0,279 mm 1,3 UV-I 158 W/m 5,5 C 8,3 C 17,5 km/h (3 Bft)
13.04.2015 12:00 11,1 C 71 % 1027,9 hPa 0,0 l/m 8,7 km/h (2 Bft) N 1,00 h 0,127 mm 2,4 UV-I 346 W/m 6,1 C 9,4 C 14,2 km/h (3 Bft)
13.04.2015 13:00 11,8 C 67 % 1027,7 hPa 0,0 l/m 5,6 km/h (2 Bft) N 1,00 h 0,203 mm 2,7 UV-I 401 W/m 6,0 C 11,2 C 9,6 km/h (2 Bft)
13.04.2015 14:00 12,1 C 65 % 1027,6 hPa 0,0 l/m 6,4 km/h (2 Bft) N 1,00 h 0,229 mm 2,1 UV-I 292 W/m 5,7 C 11,3 C 10,8 km/h (2 Bft)
13.04.2015 15:00 13,5 C 55 % 1027,1 hPa 0,0 l/m 10,6 km/h (2 Bft) NW 1,00 h 0,178 mm 2,2 UV-I 413 W/m 4,5 C 11,1 C 15,6 km/h (3 Bft)
13.04.2015 16:00 13,6 C 47 % 1026,9 hPa 0,0 l/m 17,4 km/h (3 Bft) W-NW 1,00 h 0,279 mm 1,7 UV-I 375 W/m 2,4 C 8,9 C 25,7 km/h (4 Bft)
13.04.2015 17:00 13,0 C 46 % 1027,1 hPa 0,0 l/m 14,7 km/h (3 Bft) NW 1,00 h 0,305 mm 1,1 UV-I 297 W/m 1,7 C 8,9 C 21,4 km/h (4 Bft)
13.04.2015 18:00 11,7 C 43 % 1027,4 hPa 0,0 l/m 13,1 km/h (3 Bft) NW 1,00 h 0,229 mm 0,6 UV-I 110 W/m -0,4 C 8,1 C 19,8 km/h (4 Bft)
13.04.2015 19:00 10,2 C 43 % 1027,6 hPa 0,0 l/m 8,1 km/h (2 Bft) NW 0,07 h 0,127 mm 0,0 UV-I 27 W/m -1,8 C 8,8 C 12,7 km/h (3 Bft)
13.04.2015 20:00 8,6 C 50 % 1028,1 hPa 0,0 l/m 5,8 km/h (2 Bft) N 0,00 h 0,076 mm 0,0 UV-I 0 W/m -1,3 C 8,1 C 10,0 km/h (2 Bft)
13.04.2015 21:00 6,9 C 56 % 1028,8 hPa 0,0 l/m 4,0 km/h (1 Bft) N 0,00 h 0,025 mm 0,0 UV-I 0 W/m -1,2 C 6,8 C 7,7 km/h (2 Bft)
13.04.2015 22:00 5,2 C 64 % 1029,2 hPa 0,0 l/m 0,4 km/h (0 Bft) N 0,00 h 0,051 mm 0,0 UV-I 0 W/m -1,0 C 5,2 C 1,0 km/h (0 Bft)
13.04.2015 23:00 3,5 C 75 % 1029,4 hPa 0,0 l/m 0,0 km/h (0 Bft) N 0,00 h 0,025 mm 0,0 UV-I 0 W/m -0,5 C 3,5 C 0,0 km/h (0 Bft)
14.04.2015 00:00 2,3 C 82 % 1029,7 hPa 0,0 l/m 0,0 km/h (0 Bft) N 0,00 h 0,025 mm 0,0 UV-I 0 W/m -0,5 C 2,3 C 0,0 km/h (0 Bft)
14.04.2015 01:00 1,2 C 86 % 1029,9 hPa 0,0 l/m 0,0 km/h (0 Bft) N 0,00 h 0,000 mm 0,0 UV-I 0 W/m -0,9 C 1,2 C 0,0 km/h (0 Bft)
14.04.2015 02:00 0,4 C 89 % 1029,7 hPa 0,0 l/m 0,0 km/h (0 Bft) N 0,00 h 0,000 mm 0,0 UV-I 0 W/m -1,2 C 0,4 C 0,2 km/h (0 Bft)
14.04.2015 03:00 -0,0 C 90 % 1029,7 hPa 0,0 l/m 0,0 km/h (0 Bft) N 0,00 h 0,000 mm 0,0 UV-I 0 W/m -1,5 C -0,0 C 0,0 km/h (0 Bft)
14.04.2015 04:00 -0,6 C 92 % 1029,6 hPa 0,0 l/m 0,0 km/h (0 Bft) N 0,00 h 0,000 mm 0,0 UV-I 0 W/m -1,7 C -0,6 C 0,1 km/h (0 Bft)
14.04.2015 05:00 -0,5 C 92 % 1029,6 hPa 0,0 l/m 0,0 km/h (0 Bft) N 0,00 h 0,000 mm 0,0 UV-I 0 W/m -1,6 C -0,5 C 0,1 km/h (0 Bft)
14.04.2015 06:00 -0,6 C 91 % 1029,9 hPa 0,0 l/m 0,0 km/h (0 Bft) N 0,00 h 0,000 mm 0,0 UV-I 13 W/m -1,8 C -0,6 C 0,0 km/h (0 Bft)
14.04.2015 07:00 -0,2 C 92 % 1030,1 hPa 0,0 l/m 0,0 km/h (0 Bft) N 0,68 h 0,000 mm 0,5 UV-I 63 W/m -1,4 C -0,2 C 0,0 km/h (0 Bft)
14.04.2015 08:00 2,0 C 87 % 1029,9 hPa 0,0 l/m 0,0 km/h (0 Bft) N 1,00 h 0,025 mm 0,8 UV-I 211 W/m -0,1 C 2,0 C 0,4 km/h (0 Bft)
14.04.2015 09:00 6,4 C 71 % 1029,7 hPa 0,0 l/m 1,5 km/h (1 Bft) SO 1,00 h 0,076 mm 1,7 UV-I 460 W/m 1,4 C 6,4 C 4,0 km/h (1 Bft)
14.04.2015 10:00 9,2 C 54 % 1029,6 hPa 0,0 l/m 7,5 km/h (2 Bft) W 1,00 h 0,203 mm 2,4 UV-I 466 W/m 0,3 C 8,0 C 12,5 km/h (2 Bft)
14.04.2015 11:00 10,9 C 46 % 1029,3 hPa 0,0 l/m 9,2 km/h (2 Bft) W-SW 1,00 h 0,254 mm 3,8 UV-I 714 W/m -0,4 C 9,1 C 14,6 km/h (3 Bft)
14.04.2015 12:00 12,1 C 41 % 1028,8 hPa 0,0 l/m 11,4 km/h (2 Bft) W-SW 1,00 h 0,381 mm 4,4 UV-I 741 W/m -0,6 C 9,3 C 17,0 km/h (3 Bft)
14.04.2015 13:00 13,6 C 40 % 1028,0 hPa 0,0 l/m 12,1 km/h (2 Bft) W-SW 1,00 h 0,432 mm 4,5 UV-I 757 W/m 0,3 C 10,7 C 18,7 km/h (3 Bft)
14.04.2015 14:00 14,5 C 41 % 1027,3 hPa 0,0 l/m 14,4 km/h (3 Bft) W 1,00 h 0,457 mm 3,9 UV-I 675 W/m 1,5 C 10,9 C 22,6 km/h (4 Bft)
14.04.2015 15:00 14,0 C 45 % 1026,6 hPa 0,0 l/m 13,9 km/h (3 Bft) W-SW 1,00 h 0,432 mm 2,4 UV-I 392 W/m 2,4 C 10,6 C 21,0 km/h (4 Bft)
14.04.2015 16:00 15,1 C 45 % 1025,6 hPa 0,0 l/m 11,7 km/h (2 Bft) W 1,00 h 0,279 mm 1,8 UV-I 350 W/m 3,2 C 12,6 C 18,1 km/h (3 Bft)
14.04.2015 17:00 16,1 C 45 % 1025,1 hPa 0,0 l/m 12,5 km/h (2 Bft) W 1,00 h 0,254 mm 1,1 UV-I 322 W/m 4,0 C 13,4 C 18,9 km/h (3 Bft)
14.04.2015 18:00 15,1 C 49 % 1024,8 hPa 0,0 l/m 8,7 km/h (2 Bft) W 1,00 h 0,254 mm 0,6 UV-I 106 W/m 4,4 C 13,7 C 13,6 km/h (3 Bft)
14.04.2015 19:00 14,3 C 53 % 1024,3 hPa 0,0 l/m 3,5 km/h (1 Bft) W-SW 0,03 h 0,102 mm 0,0 UV-I 24 W/m 4,8 C 14,2 C 6,6 km/h (2 Bft)
14.04.2015 20:00 12,8 C 60 % 1024,3 hPa 0,0 l/m 0,2 km/h (0 Bft) SW 0,00 h 0,051 mm 0,0 UV-I 0 W/m 5,1 C 12,8 C 1,5 km/h (1 Bft)
14.04.2015 21:00 11,0 C 69 % 1024,2 hPa 0,0 l/m 0,2 km/h (0 Bft) N 0,00 h 0,000 mm 0,0 UV-I 0 W/m 5,4 C 11,0 C 1,2 km/h (1 Bft)
14.04.2015 22:00 10,2 C 72 % 1024,0 hPa 0,0 l/m 0,5 km/h (0 Bft) N 0,00 h 0,025 mm 0,0 UV-I 0 W/m 5,4 C 10,2 C 1,6 km/h (1 Bft)
14.04.2015 23:00 9,1 C 77 % 1023,9 hPa 0,0 l/m 0,5 km/h (0 Bft) S-SO 0,00 h 0,025 mm 0,0 UV-I 0 W/m 5,3 C 9,1 C 1,6 km/h (1 Bft)
15.04.2015 00:00 7,8 C 82 % 1023,6 hPa 0,0 l/m 0,2 km/h (0 Bft) O-SO 0,00 h 0,025 mm 0,0 UV-I 0 W/m 4,9 C 7,8 C 1,3 km/h (1 Bft)
15.04.2015 01:00 7,0 C 85 % 1023,0 hPa 0,0 l/m 0,0 km/h (0 Bft) O-SO 0,00 h 0,000 mm 0,0 UV-I 0 W/m 4,7 C 7,0 C 0,8 km/h (0 Bft)
15.04.2015 02:00 6,2 C 88 % 1022,6 hPa 0,0 l/m 0,3 km/h (0 Bft) N 0,00 h 0,000 mm 0,0 UV-I 0 W/m 4,4 C 6,2 C 1,2 km/h (1 Bft)
15.04.2015 03:00 8,4 C 84 % 1022,0 hPa 0,0 l/m 0,5 km/h (0 Bft) N 0,00 h 0,000 mm 0,0 UV-I 0 W/m 5,8 C 8,4 C 1,5 km/h (1 Bft)
15.04.2015 04:00 9,0 C 83 % 1021,7 hPa 0,0 l/m 0,2 km/h (0 Bft) N 0,00 h 0,000 mm 0,0 UV-I 0 W/m 6,2 C 9,0 C 1,1 km/h (1 Bft)
15.04.2015 05:00 10,5 C 78 % 1021,4 hPa 0,0 l/m 1,7 km/h (1 Bft) W-SW 0,00 h 0,000 mm 0,0 UV-I 0 W/m 6,7 C 10,5 C 4,1 km/h (1 Bft)
15.04.2015 06:00 10,8 C 76 % 1021,1 hPa 0,0 l/m 1,7 km/h (1 Bft) W 0,00 h 0,025 mm 0,0 UV-I 17 W/m 6,7 C 10,8 C 4,0 km/h (1 Bft)
15.04.2015 07:00 9,9 C 80 % 1021,3 hPa 0,0 l/m 0,8 km/h (0 Bft) SO 0,68 h 0,025 mm 0,5 UV-I 77 W/m 6,6 C 9,9 C 2,1 km/h (1 Bft)
15.04.2015 08:00 12,2 C 73 % 1021,2 hPa 0,0 l/m 2,8 km/h (1 Bft) S 1,00 h 0,051 mm 0,9 UV-I 283 W/m 7,5 C 12,2 C 5,4 km/h (1 Bft)
15.04.2015 09:00 14,7 C 65 % 1020,9 hPa 0,0 l/m 6,5 km/h (2 Bft) S 1,00 h 0,152 mm 1,7 UV-I 495 W/m 8,2 C 14,2 C 10,9 km/h (2 Bft)
15.04.2015 10:00 16,6 C 56 % 1020,6 hPa 0,0 l/m 12,6 km/h (3 Bft) W-SW 1,00 h 0,279 mm 2,8 UV-I 641 W/m 7,9 C 13,9 C 19,4 km/h (3 Bft)
15.04.2015 11:00 17,8 C 47 % 1020,1 hPa 0,0 l/m 13,6 km/h (3 Bft) W-SW 1,00 h 0,406 mm 3,8 UV-I 706 W/m 6,3 C 15,1 C 21,7 km/h (4 Bft)
15.04.2015 12:00 19,3 C 39 % 1019,5 hPa 0,0 l/m 12,8 km/h (3 Bft) W-SW 1,00 h 0,483 mm 4,5 UV-I 782 W/m 5,1 C 17,1 C 19,8 km/h (4 Bft)
15.04.2015 13:00 20,1 C 36 % 1018,8 hPa 0,0 l/m 13,0 km/h (3 Bft) W-SW 1,00 h 0,559 mm 4,4 UV-I 738 W/m 4,6 C 17,9 C 20,2 km/h (4 Bft)
15.04.2015 14:00 20,6 C 34 % 1018,1 hPa 0,0 l/m 16,2 km/h (3 Bft) W-SW 1,00 h 0,533 mm 4,1 UV-I 734 W/m 4,0 C 17,8 C 24,7 km/h (4 Bft)
15.04.2015 15:00 22,0 C 31 % 1017,1 hPa 0,0 l/m 14,1 km/h (3 Bft) W 1,00 h 0,584 mm 3,2 UV-I 667 W/m 4,3 C 20,0 C 20,8 km/h (4 Bft)
15.04.2015 16:00 22,2 C 30 % 1016,1 hPa 0,0 l/m 11,8 km/h (2 Bft) W 1,00 h 0,533 mm 2,1 UV-I 542 W/m 3,6 C 20,7 C 18,8 km/h (3 Bft)
15.04.2015 17:00 22,0 C 30 % 1015,2 hPa 0,0 l/m 11,6 km/h (2 Bft) W-SW 1,00 h 0,457 mm 1,2 UV-I 371 W/m 3,8 C 20,5 C 17,5 km/h (3 Bft)
15.04.2015 18:00 21,3 C 31 % 1014,7 hPa 0,0 l/m 11,3 km/h (2 Bft) W-SW 0,37 h 0,356 mm 0,7 UV-I 102 W/m 3,3 C 19,7 C 17,7 km/h (3 Bft)
15.04.2015 19:00 19,9 C 32 % 1014,2 hPa 0,0 l/m 6,0 km/h (2 Bft) W-SW 0,00 h 0,178 mm 0,0 UV-I 14 W/m 2,6 C 19,4 C 10,2 km/h (2 Bft)
15.04.2015 20:00 17,5 C 38 % 1014,1 hPa 0,0 l/m 1,2 km/h (1 Bft) SW 0,00 h 0,076 mm 0,0 UV-I 0 W/m 3,1 C 17,5 C 3,2 km/h (1 Bft)
15.04.2015 21:00 14,0 C 52 % 1014,2 hPa 0,0 l/m 0,0 km/h (0 Bft) N 0,00 h 0,025 mm 0,0 UV-I 0 W/m 4,3 C 14,0 C 0,0 km/h (0 Bft)
15.04.2015 22:00 11,0 C 67 % 1013,9 hPa 0,0 l/m 0,2 km/h (0 Bft) N 0,00 h 0,025 mm 0,0 UV-I 0 W/m 5,1 C 11,0 C 1,1 km/h (1 Bft)
15.04.2015 23:00 9,6 C 74 % 1013,9 hPa 0,0 l/m 0,1 km/h (0 Bft) N 0,00 h 0,025 mm 0,0 UV-I 0 W/m 5,2 C 9,6 C 0,4 km/h (0 Bft)
16.04.2015 00:00 9,1 C 77 % 1013,6 hPa 0,0 l/m 0,1 km/h (0 Bft) N 0,00 h 0,025 mm 0,0 UV-I 0 W/m 5,2 C 9,1 C 0,8 km/h (0 Bft)
16.04.2015 01:00 8,4 C 80 % 1013,1 hPa 0,0 l/m 0,1 km/h (0 Bft) N 0,00 h 0,025 mm 0,0 UV-I 0 W/m 5,1 C 8,4 C 0,5 km/h (0 Bft)
16.04.2015 02:00 7,4 C 83 % 1012,6 hPa 0,0 l/m 0,1 km/h (0 Bft) N 0,00 h 0,025 mm 0,0 UV-I 0 W/m 4,6 C 7,4 C 0,4 km/h (0 Bft)
16.04.2015 03:00 6,4 C 85 % 1012,2 hPa 0,0 l/m 0,3 km/h (0 Bft) N 0,00 h 0,000 mm 0,0 UV-I 0 W/m 4,0 C 6,4 C 0,9 km/h (0 Bft)
16.04.2015 04:00 5,6 C 86 % 1012,2 hPa 0,0 l/m 0,0 km/h (0 Bft) N 0,00 h 0,000 mm 0,0 UV-I 0 W/m 3,5 C 5,6 C 0,3 km/h (0 Bft)
16.04.2015 05:00 5,2 C 87 % 1012,1 hPa 0,0 l/m 0,0 km/h (0 Bft) N 0,00 h 0,000 mm 0,0 UV-I 0 W/m 3,1 C 5,2 C 0,1 km/h (0 Bft)
16.04.2015 06:00 4,8 C 88 % 1012,4 hPa 0,0 l/m 0,0 km/h (0 Bft) N 0,00 h 0,000 mm 0,0 UV-I 14 W/m 2,9 C 4,8 C 0,1 km/h (0 Bft)
16.04.2015 07:00 5,9 C 85 % 1012,8 hPa 0,0 l/m 0,0 km/h (0 Bft) N 0,82 h 0,000 mm 0,5 UV-I 80 W/m 3,6 C 5,9 C 0,0 km/h (0 Bft)
16.04.2015 08:00 10,2 C 74 % 1012,9 hPa 0,0 l/m 0,1 km/h (0 Bft) N 1,00 h 0,025 mm 0,8 UV-I 263 W/m 5,7 C 10,2 C 1,0 km/h (0 Bft)
16.04.2015 09:00 14,7 C 58 % 1013,1 hPa 0,0 l/m 0,5 km/h (0 Bft) N 1,00 h 0,127 mm 1,6 UV-I 462 W/m 6,4 C 14,7 C 1,8 km/h (1 Bft)
16.04.2015 10:00 17,6 C 49 % 1013,1 hPa 0,0 l/m 1,2 km/h (1 Bft) N 1,00 h 0,254 mm 2,5 UV-I 603 W/m 6,8 C 17,6 C 3,2 km/h (1 Bft)
16.04.2015 11:00 19,7 C 42 % 1013,2 hPa 0,0 l/m 6,8 km/h (2 Bft) S 1,00 h 0,356 mm 3,5 UV-I 748 W/m 6,4 C 19,1 C 11,6 km/h (2 Bft)
16.04.2015 12:00 21,1 C 33 % 1012,9 hPa 0,0 l/m 13,8 km/h (3 Bft) NW 1,00 h 0,483 mm 4,0 UV-I 764 W/m 4,3 C 19,0 C 21,0 km/h (4 Bft)
16.04.2015 13:00 20,6 C 33 % 1012,7 hPa 0,0 l/m 13,7 km/h (3 Bft) W 1,00 h 0,584 mm 3,5 UV-I 633 W/m 3,7 C 18,4 C 21,3 km/h (4 Bft)
16.04.2015 14:00 21,1 C 33 % 1012,3 hPa 0,0 l/m 11,8 km/h (2 Bft) W-SW 1,00 h 0,483 mm 3,3 UV-I 596 W/m 4,1 C 19,5 C 18,3 km/h (3 Bft)
16.04.2015 15:00 21,5 C 32 % 1011,7 hPa 0,0 l/m 13,7 km/h (3 Bft) W 1,00 h 0,483 mm 2,3 UV-I 498 W/m 4,2 C 19,4 C 21,0 km/h (4 Bft)
16.04.2015 16:00 20,2 C 37 % 1011,2 hPa 0,0 l/m 12,3 km/h (2 Bft) W-SW 1,00 h 0,406 mm 1,4 UV-I 288 W/m 5,1 C 18,2 C 19,2 km/h (3 Bft)
16.04.2015 17:00 20,0 C 37 % 1010,8 hPa 0,0 l/m 12,0 km/h (2 Bft) W-SW 1,00 h 0,279 mm 0,9 UV-I 250 W/m 5,0 C 18,2 C 18,6 km/h (3 Bft)
16.04.2015 18:00 19,8 C 39 % 1010,4 hPa 0,0 l/m 10,7 km/h (2 Bft) W-SW 1,00 h 0,254 mm 0,6 UV-I 128 W/m 5,4 C 18,2 C 17,2 km/h (3 Bft)
16.04.2015 19:00 18,5 C 44 % 1010,2 hPa 0,0 l/m 5,7 km/h (2 Bft) W-SW 0,13 h 0,178 mm 0,0 UV-I 27 W/m 6,1 C 18,2 C 9,9 km/h (2 Bft)
16.04.2015 20:00 16,2 C 57 % 1010,5 hPa 0,0 l/m 4,2 km/h (1 Bft) N 0,00 h 0,076 mm 0,0 UV-I 0 W/m 7,5 C 16,0 C 7,6 km/h (2 Bft)
16.04.2015 21:00 14,0 C 70 % 1011,2 hPa 0,0 l/m 4,5 km/h (1 Bft) N 0,00 h 0,025 mm 0,0 UV-I 0 W/m 8,6 C 13,7 C 8,2 km/h (2 Bft)
16.04.2015 22:00 12,6 C 76 % 1011,6 hPa 0,0 l/m 4,5 km/h (1 Bft) N 0,00 h 0,000 mm 0,0 UV-I 0 W/m 8,5 C 12,5 C 8,0 km/h (2 Bft)
16.04.2015 23:00 11,5 C 79 % 1011,7 hPa 0,0 l/m 3,4 km/h (1 Bft) N 0,00 h 0,025 mm 0,0 UV-I 0 W/m 8,1 C 11,4 C 6,5 km/h (2 Bft)
17.04.2015 00:00 10,6 C 81 % 1011,9 hPa 0,0 l/m 2,8 km/h (1 Bft) N 0,00 h 0,025 mm 0,0 UV-I 0 W/m 7,4 C 10,6 C 5,1 km/h (1 Bft)
17.04.2015 01:00 10,0 C 82 % 1011,8 hPa 0,0 l/m 0,7 km/h (0 Bft) N 0,00 h 0,025 mm 0,0 UV-I 0 W/m 7,1 C 10,0 C 1,6 km/h (1 Bft)
17.04.2015 02:00 9,4 C 83 % 1011,3 hPa 0,0 l/m 3,5 km/h (1 Bft) N 0,00 h 0,025 mm 0,0 UV-I 0 W/m 6,7 C 9,3 C 5,9 km/h (2 Bft)
17.04.2015 03:00 8,8 C 85 % 1011,4 hPa 0,0 l/m 5,0 km/h (1 Bft) N 0,00 h 0,025 mm 0,0 UV-I 0 W/m 6,3 C 8,2 C 8,0 km/h (2 Bft)
17.04.2015 04:00 8,7 C 85 % 1011,4 hPa 0,0 l/m 2,1 km/h (1 Bft) N 0,00 h 0,000 mm 0,0 UV-I 0 W/m 6,3 C 8,6 C 4,2 km/h (1 Bft)
17.04.2015 05:00 8,2 C 87 % 1010,5 hPa 0,0 l/m 1,6 km/h (1 Bft) N 0,00 h 0,025 mm 0,0 UV-I 0 W/m 6,2 C 8,2 C 3,2 km/h (1 Bft)
17.04.2015 06:00 7,5 C 88 % 1010,4 hPa 0,0 l/m 5,9 km/h (2 Bft) N 0,00 h 0,000 mm 0,0 UV-I 13 W/m 5,7 C 7,1 C 9,5 km/h (2 Bft)
17.04.2015 07:00 7,8 C 85 % 1010,8 hPa 0,0 l/m 7,9 km/h (2 Bft) N 0,38 h 0,000 mm 0,0 UV-I 48 W/m 5,4 C 6,4 C 12,0 km/h (2 Bft)
17.04.2015 08:00 8,1 C 80 % 1011,0 hPa 0,0 l/m 9,2 km/h (2 Bft) N 1,00 h 0,025 mm 0,5 UV-I 90 W/m 4,8 C 6,0 C 13,4 km/h (3 Bft)
17.04.2015 09:00 8,3 C 79 % 1011,1 hPa 0,0 l/m 7,1 km/h (2 Bft) N 1,00 h 0,051 mm 0,7 UV-I 112 W/m 4,9 C 7,4 C 11,5 km/h (2 Bft)
17.04.2015 10:00 8,9 C 77 % 1011,5 hPa 0,0 l/m 6,3 km/h (2 Bft) N 1,00 h 0,076 mm 0,9 UV-I 138 W/m 5,1 C 8,3 C 10,9 km/h (2 Bft)
17.04.2015 11:00 9,0 C 75 % 1011,9 hPa 0,0 l/m 5,0 km/h (1 Bft) N 1,00 h 0,076 mm 0,8 UV-I 121 W/m 4,8 C 8,7 C 8,1 km/h (2 Bft)
17.04.2015 12:00 10,0 C 72 % 1011,7 hPa 0,0 l/m 2,3 km/h (1 Bft) N 1,00 h 0,076 mm 1,6 UV-I 235 W/m 5,1 C 10,0 C 5,1 km/h (1 Bft)
17.04.2015 13:00 12,2 C 62 % 1011,5 hPa 0,0 l/m 4,2 km/h (1 Bft) N 1,00 h 0,127 mm 3,3 UV-I 560 W/m 5,2 C 11,8 C 7,5 km/h (2 Bft)
17.04.2015 14:00 13,4 C 54 % 1011,4 hPa 0,0 l/m 12,0 km/h (2 Bft) N 1,00 h 0,305 mm 2,9 UV-I 507 W/m 4,4 C 10,6 C 18,8 km/h (3 Bft)
17.04.2015 15:00 12,3 C 53 % 1011,7 hPa 0,0 l/m 10,8 km/h (2 Bft) N 1,00 h 0,305 mm 1,7 UV-I 279 W/m 2,9 C 9,8 C 17,2 km/h (3 Bft)
17.04.2015 16:00 11,8 C 51 % 1012,2 hPa 0,0 l/m 13,0 km/h (3 Bft) N 1,00 h 0,203 mm 1,8 UV-I 401 W/m 2,1 C 8,3 C 21,0 km/h (4 Bft)
17.04.2015 17:00 11,0 C 50 % 1012,8 hPa 0,0 l/m 15,6 km/h (3 Bft) N 1,00 h 0,254 mm 1,1 UV-I 317 W/m 1,0 C 6,2 C 24,2 km/h (4 Bft)
17.04.2015 18:00 8,7 C 56 % 1013,8 hPa 0,0 l/m 14,9 km/h (3 Bft) N 1,00 h 0,229 mm 0,6 UV-I 84 W/m 0,3 C 3,9 C 23,1 km/h (4 Bft)
17.04.2015 19:00 7,3 C 60 % 1014,9 hPa 0,0 l/m 9,3 km/h (2 Bft) N 0,27 h 0,102 mm 0,0 UV-I 29 W/m 0,1 C 5,1 C 15,3 km/h (3 Bft)
17.04.2015 20:00 6,4 C 61 % 1015,9 hPa 0,0 l/m 6,6 km/h (2 Bft) N 0,00 h 0,051 mm 0,0 UV-I 5 W/m -0,6 C 5,5 C 11,3 km/h (2 Bft)
17.04.2015 21:00 5,5 C 66 % 1016,8 hPa 0,0 l/m 5,1 km/h (1 Bft) N 0,00 h 0,025 mm 0,0 UV-I 0 W/m -0,4 C 5,0 C 9,1 km/h (2 Bft)
17.04.2015 22:00 4,5 C 72 % 1017,5 hPa 0,0 l/m 0,8 km/h (0 Bft) N 0,00 h 0,025 mm 0,0 UV-I 0 W/m -0,2 C 4,5 C 1,9 km/h (1 Bft)
17.04.2015 23:00 3,6 C 76 % 1018,0 hPa 0,0 l/m 0,4 km/h (0 Bft) N 0,00 h 0,025 mm 0,0 UV-I 0 W/m -0,2 C 3,6 C 1,6 km/h (1 Bft)
18.04.2015 00:00 2,1 C 83 % 1018,7 hPa 0,0 l/m 0,1 km/h (0 Bft) N 0,00 h 0,025 mm 0,0 UV-I 0 W/m -0,6 C 2,1 C 0,3 km/h (0 Bft)
18.04.2015 01:00 0,8 C 87 % 1019,4 hPa 0,0 l/m 0,0 km/h (0 Bft) N 0,00 h 0,000 mm 0,0 UV-I 0 W/m -1,1 C 0,8 C 0,0 km/h (0 Bft)
18.04.2015 02:00 -0,3 C 90 % 1019,6 hPa 0,0 l/m 0,0 km/h (0 Bft) N 0,00 h 0,000 mm 0,0 UV-I 0 W/m -1,6 C -0,3 C 0,2 km/h (0 Bft)
18.04.2015 03:00 -0,5 C 91 % 1020,0 hPa 0,0 l/m 0,0 km/h (0 Bft) N 0,00 h 0,000 mm 0,0 UV-I 0 W/m -1,8 C -0,5 C 0,1 km/h (0 Bft)
18.04.2015 04:00 -0,9 C 91 % 1020,5 hPa 0,0 l/m 0,0 km/h (0 Bft) N 0,00 h 0,000 mm 0,0 UV-I 0 W/m -2,2 C -0,9 C 0,2 km/h (0 Bft)
18.04.2015 05:00 -1,1 C 92 % 1020,8 hPa 0,0 l/m 0,0 km/h (0 Bft) N 0,00 h 0,000 mm 0,0 UV-I 0 W/m -2,3 C -1,1 C 0,2 km/h (0 Bft)
18.04.2015 06:00 -1,3 C 92 % 1021,3 hPa 0,0 l/m 0,0 km/h (0 Bft) N 0,00 h 0,000 mm 0,0 UV-I 13 W/m -2,5 C -1,3 C 0,1 km/h (0 Bft)
18.04.2015 07:00 0,5 C 90 % 1022,1 hPa 0,0 l/m 3,1 km/h (1 Bft) N 0,82 h 0,000 mm 0,5 UV-I 76 W/m -0,9 C 0,4 C 6,3 km/h (2 Bft)
18.04.2015 08:00 3,0 C 84 % 1022,9 hPa 0,0 l/m 7,3 km/h (2 Bft) N 1,00 h 0,025 mm 0,6 UV-I 129 W/m 0,5 C 1,4 C 12,5 km/h (2 Bft)
18.04.2015 09:00 4,5 C 76 % 1023,5 hPa 0,0 l/m 7,3 km/h (2 Bft) N-NO 1,00 h 0,051 mm 1,1 UV-I 219 W/m 0,6 C 2,8 C 11,9 km/h (2 Bft)
18.04.2015 10:00 5,7 C 70 % 1024,1 hPa 0,0 l/m 8,2 km/h (2 Bft) N-NO 1,00 h 0,102 mm 1,4 UV-I 325 W/m 0,6 C 3,8 C 13,1 km/h (3 Bft)
18.04.2015 11:00 6,5 C 65 % 1024,6 hPa 0,0 l/m 10,1 km/h (2 Bft) N-NO 1,00 h 0,152 mm 2,0 UV-I 385 W/m 0,3 C 3,7 C 16,4 km/h (3 Bft)
18.04.2015 12:00 8,2 C 55 % 1024,7 hPa 0,0 l/m 11,1 km/h (2 Bft) N 1,00 h 0,203 mm 2,9 UV-I 516 W/m -0,2 C 5,2 C 17,1 km/h (3 Bft)
18.04.2015 13:00 9,8 C 47 % 1024,7 hPa 0,0 l/m 9,1 km/h (2 Bft) N-NO 1,00 h 0,305 mm 3,2 UV-I 688 W/m -1,1 C 7,6 C 15,0 km/h (3 Bft)
18.04.2015 14:00 9,2 C 45 % 1024,8 hPa 0,0 l/m 7,7 km/h (2 Bft) N 1,00 h 0,381 mm 2,0 UV-I 339 W/m -2,0 C 7,8 C 12,9 km/h (3 Bft)
18.04.2015 15:00 9,1 C 47 % 1024,6 hPa 0,0 l/m 6,0 km/h (2 Bft) N-NO 1,00 h 0,203 mm 1,7 UV-I 359 W/m -1,8 C 8,1 C 9,8 km/h (2 Bft)
18.04.2015 16:00 9,6 C 43 % 1024,2 hPa 0,0 l/m 7,9 km/h (2 Bft) N-NO 1,00 h 0,203 mm 1,5 UV-I 425 W/m -2,2 C 8,2 C 12,7 km/h (3 Bft)
18.04.2015 17:00 8,8 C 43 % 1024,2 hPa 0,0 l/m 8,4 km/h (2 Bft) N 1,00 h 0,229 mm 0,9 UV-I 250 W/m -3,0 C 7,0 C 13,5 km/h (3 Bft)
18.04.2015 18:00 8,1 C 46 % 1024,3 hPa 0,0 l/m 8,3 km/h (2 Bft) N 0,97 h 0,152 mm 0,6 UV-I 84 W/m -2,7 C 6,4 C 14,1 km/h (3 Bft)
18.04.2015 19:00 6,9 C 51 % 1024,4 hPa 0,0 l/m 2,4 km/h (1 Bft) N 0,00 h 0,076 mm 0,0 UV-I 25 W/m -2,6 C 6,9 C 4,9 km/h (1 Bft)
18.04.2015 20:00 5,7 C 57 % 1024,4 hPa 0,0 l/m 0,0 km/h (0 Bft) N 0,00 h 0,025 mm 0,0 UV-I 5 W/m -2,3 C 5,7 C 0,6 km/h (0 Bft)
18.04.2015 21:00 3,2 C 71 % 1024,9 hPa 0,0 l/m 0,0 km/h (0 Bft) N 0,00 h 0,000 mm 0,0 UV-I 0 W/m -1,5 C 3,2 C 0,1 km/h (0 Bft)
18.04.2015 22:00 1,7 C 79 % 1024,9 hPa 0,0 l/m 0,0 km/h (0 Bft) N 0,00 h 0,025 mm 0,0 UV-I 0 W/m -1,6 C 1,7 C 0,1 km/h (0 Bft)
18.04.2015 23:00 0,4 C 84 % 1025,0 hPa 0,0 l/m 0,0 km/h (0 Bft) N 0,00 h 0,000 mm 0,0 UV-I 0 W/m -1,9 C 0,4 C 0,1 km/h (0 Bft)
19.04.2015 00:00 -0,4 C 87 % 1025,1 hPa 0,0 l/m 0,0 km/h (0 Bft) N 0,00 h 0,000 mm 0,0 UV-I 0 W/m -2,4 C -0,4 C 0,0 km/h (0 Bft)
19.04.2015 01:00 -1,0 C 87 % 1025,0 hPa 0,0 l/m 0,0 km/h (0 Bft) N 0,00 h 0,000 mm 0,0 UV-I 0 W/m -2,9 C -1,0 C 0,1 km/h (0 Bft)
19.04.2015 02:00 -1,6 C 88 % 1024,4 hPa 0,0 l/m 0,1 km/h (0 Bft) N 0,00 h 0,000 mm 0,0 UV-I 0 W/m -3,2 C -1,6 C 0,5 km/h (0 Bft)
19.04.2015 03:00 -1,9 C 89 % 1023,9 hPa 0,0 l/m 0,1 km/h (0 Bft) N 0,00 h 0,000 mm 0,0 UV-I 0 W/m -3,5 C -1,9 C 0,2 km/h (0 Bft)
19.04.2015 04:00 -2,4 C 90 % 1023,6 hPa 0,0 l/m 0,0 km/h (0 Bft) N 0,00 h 0,000 mm 0,0 UV-I 0 W/m -3,9 C -2,4 C 0,1 km/h (0 Bft)
19.04.2015 05:00 -2,8 C 90 % 1023,5 hPa 0,0 l/m 0,0 km/h (0 Bft) N 0,00 h 0,000 mm 0,0 UV-I 0 W/m -4,2 C -2,8 C 0,0 km/h (0 Bft)
19.04.2015 06:00 -3,0 C 91 % 1023,7 hPa 0,0 l/m 0,0 km/h (0 Bft) N 0,00 h 0,000 mm 0,0 UV-I 18 W/m -4,3 C -3,0 C 0,0 km/h (0 Bft)
19.04.2015 07:00 -1,5 C 90 % 1023,7 hPa 0,0 l/m 0,0 km/h (0 Bft) N 0,82 h 0,000 mm 0,5 UV-I 76 W/m -3,0 C -1,5 C 0,1 km/h (0 Bft)
19.04.2015 08:00 1,9 C 80 % 1023,6 hPa 0,0 l/m 0,2 km/h (0 Bft) N 1,00 h 0,025 mm 0,9 UV-I 273 W/m -1,2 C 1,9 C 1,1 km/h (1 Bft)
19.04.2015 09:00 6,3 C 62 % 1023,4 hPa 0,0 l/m 0,4 km/h (0 Bft) N 1,00 h 0,102 mm 1,7 UV-I 512 W/m -0,4 C 6,3 C 1,3 km/h (1 Bft)
19.04.2015 10:00 8,6 C 53 % 1023,1 hPa 0,0 l/m 1,9 km/h (1 Bft) W-NW 1,00 h 0,203 mm 2,5 UV-I 628 W/m -0,4 C 8,6 C 4,4 km/h (1 Bft)
19.04.2015 11:00 10,8 C 48 % 1022,8 hPa 0,0 l/m 3,1 km/h (1 Bft) SO 1,00 h 0,279 mm 3,6 UV-I 761 W/m 0,3 C 10,6 C 6,1 km/h (2 Bft)
19.04.2015 12:00 12,6 C 43 % 1022,4 hPa 0,0 l/m 2,7 km/h (1 Bft) N 1,00 h 0,381 mm 4,2 UV-I 809 W/m 0,4 C 12,5 C 6,1 km/h (2 Bft)
19.04.2015 13:00 13,4 C 41 % 1021,9 hPa 0,0 l/m 3,2 km/h (1 Bft) S-SO 1,00 h 0,406 mm 4,3 UV-I 811 W/m 0,5 C 13,2 C 6,6 km/h (2 Bft)
19.04.2015 14:00 14,1 C 40 % 1021,5 hPa 0,0 l/m 2,5 km/h (1 Bft) O-SO 1,00 h 0,432 mm 3,9 UV-I 769 W/m 0,8 C 14,1 C 5,0 km/h (1 Bft)
19.04.2015 15:00 15,6 C 38 % 1021,0 hPa 0,0 l/m 4,5 km/h (1 Bft) NW 1,00 h 0,406 mm 3,1 UV-I 681 W/m 1,2 C 15,4 C 7,9 km/h (2 Bft)
19.04.2015 16:00 15,6 C 36 % 1020,7 hPa 0,0 l/m 4,6 km/h (1 Bft) N 1,00 h 0,406 mm 2,1 UV-I 544 W/m 0,4 C 15,3 C 9,5 km/h (2 Bft)
19.04.2015 17:00 15,2 C 34 % 1020,7 hPa 0,0 l/m 8,6 km/h (2 Bft) N-NO 1,00 h 0,330 mm 1,2 UV-I 381 W/m -0,5 C 13,8 C 13,7 km/h (3 Bft)
19.04.2015 18:00 13,8 C 39 % 1020,9 hPa 0,0 l/m 8,5 km/h (2 Bft) N 0,75 h 0,279 mm 0,6 UV-I 98 W/m 0,2 C 12,4 C 12,9 km/h (3 Bft)
19.04.2015 19:00 12,1 C 43 % 1021,1 hPa 0,0 l/m 9,8 km/h (2 Bft) N 0,00 h 0,127 mm 0,0 UV-I 21 W/m -0,2 C 10,1 C 15,1 km/h (3 Bft)
19.04.2015 20:00 9,9 C 50 % 1021,6 hPa 0,0 l/m 7,1 km/h (2 Bft) N 0,00 h 0,076 mm 0,0 UV-I 5 W/m -0,2 C 9,0 C 11,9 km/h (2 Bft)
19.04.2015 21:00 8,3 C 54 % 1022,6 hPa 0,0 l/m 4,2 km/h (1 Bft) N 0,00 h 0,053 mm 0,0 UV-I 0 W/m -0,3 C 8,0 C 8,0 km/h (2 Bft)
19.04.2015 22:00 6,8 C 61 % 1023,1 hPa 0,0 l/m 0,0 km/h (0 Bft) N 0,00 h 0,051 mm 0,0 UV-I 0 W/m -0,2 C 6,8 C 0,1 km/h (0 Bft)
19.04.2015 23:00 4,7 C 72 % 1023,4 hPa 0,0 l/m 0,0 km/h (0 Bft) N 0,00 h 0,025 mm 0,0 UV-I 0 W/m 0,0 C 4,7 C 0,0 km/h (0 Bft)
Min-Datum _ 19.04.15 15.04.15 16.04.15 - 13.04.15 - - - - - 19.04.15 18.04.15 13.04.15
_ Min-Zeit 06:22 16:14 19:07 - 00:00 - - - - - 06:05 08:08 00:00
Minimum _ -3,1 C 28 % 1010,2 hPa - 0,0 km/h (0 Bft) - - - - - -4,4 C -3,8 C 0,0 km/h (0 Bft)
Max-Datum _ 15.04.15 14.04.15 14.04.15 13.04.15 13.04.15 - 19.04.15 15.04.15 15.04.15 18.04.15 16.04.15 15.04.15 13.04.15
_ Max-Zeit 16:40 07:29 06:59 00:00 10:31 - 07:24 15:00 13:05 11:55 21:30 16:42 16:20
Maximum _ 22,7 C 93 % 1030,2 hPa 0,0 l/m 27,4 km/h
W (5 Bft)
- 0,05 h 0,584 mm 5,1 UV-I 1107 W/m 8,8 C 22,5 C 38,6 km/h
W-NW (6 Bft)
Durchschnitt _ 9,3 C 65 % 1020,5 hPa #0,0 l/m 5,1 km/h (1 Bft) N #81:23 h #22,643 mm 2,0 UV-I 332 W/m 2,4 C 8,5 C 8,3 km/h (2 Bft)